Time;durP1;ratioP1;P1;durP2;ratioP2;P2;SDS_P1;SDS_P2;PMS_P1;PMS_P2;Temp;Humidity;BMP_temperature;BMP_pressure;BME280_temperature;BME280_humidity;BME280_pressure;Samples;Min_cycle;Max_cycle;Signal;HPM_P1;HPM_P2
2022/12/28 00:02:17;;;;;;;8.47;6.03;;;7.30;99.90;;;;;;5072190;28;20203;-63
2022/12/28 00:04:47;;;;;;;12.10;6.40;;;7.30;99.90;;;;;;5093375;28;20187;-63
2022/12/28 00:07:16;;;;;;;10.50;6.80;;;7.30;99.90;;;;;;5072433;28;20212;-64
2022/12/28 00:09:46;;;;;;;7.30;6.60;;;7.30;99.90;;;;;;5074030;28;20220;-63
2022/12/28 00:12:14;;;;;;;9.57;6.70;;;7.30;99.90;;;;;;5071922;28;20224;-63
2022/12/28 00:14:42;;;;;;;10.20;7.17;;;7.30;99.90;;;;;;5068537;28;20192;-63
2022/12/28 00:17:13;;;;;;;9.77;6.67;;;7.30;99.90;;;;;;5069108;28;20214;-63
2022/12/28 00:19:41;;;;;;;12.40;6.63;;;7.30;99.90;;;;;;5071626;28;20184;-63
2022/12/28 00:22:10;;;;;;;11.67;6.30;;;7.30;99.90;;;;;;5072913;28;20534;-63
2022/12/28 00:24:38;;;;;;;12.43;6.10;;;7.30;99.90;;;;;;5068959;28;20269;-63
2022/12/28 00:27:08;;;;;;;12.20;6.73;;;7.30;99.90;;;;;;5071400;28;20222;-63
2022/12/28 00:29:36;;;;;;;9.93;6.03;;;7.40;99.90;;;;;;5076242;28;20185;-63
2022/12/28 00:32:05;;;;;;;6.67;5.93;;;7.30;99.90;;;;;;5076235;28;20196;-63
2022/12/28 00:34:33;;;;;;;8.13;5.80;;;7.40;99.90;;;;;;5055478;28;20207;-63
2022/12/28 00:37:02;;;;;;;10.17;6.17;;;7.40;99.90;;;;;;5073081;28;20191;-63
2022/12/28 00:39:41;;;;;;;10.60;6.13;;;7.40;99.90;;;;;;5069536;28;20200;-63
2022/12/28 00:42:11;;;;;;;6.93;5.97;;;7.40;99.90;;;;;;5080711;28;20187;-63
2022/12/28 00:44:40;;;;;;;9.67;6.27;;;7.50;99.90;;;;;;5077096;28;20647;-63
2022/12/28 00:47:08;;;;;;;6.37;5.77;;;7.50;99.90;;;;;;5071747;28;20721;-63
2022/12/28 00:49:37;;;;;;;7.30;6.10;;;7.50;99.90;;;;;;5071079;28;20196;-63
2022/12/28 00:52:06;;;;;;;9.17;6.23;;;7.50;99.90;;;;;;5077274;28;20639;-63
2022/12/28 00:54:34;;;;;;;9.13;5.83;;;7.50;99.90;;;;;;5074491;28;20643;-63
2022/12/28 00:57:03;;;;;;;9.93;6.10;;;7.50;99.90;;;;;;5071109;28;20188;-63
2022/12/28 00:59:32;;;;;;;6.47;5.63;;;7.60;99.90;;;;;;5072802;28;20193;-63
2022/12/28 01:02:00;;;;;;;8.83;6.07;;;7.60;99.90;;;;;;5077776;28;20227;-63
2022/12/28 01:04:29;;;;;;;7.03;5.83;;;7.60;99.90;;;;;;5071518;28;20298;-63
2022/12/28 01:06:59;;;;;;;10.97;6.73;;;7.60;99.90;;;;;;5070298;28;20204;-63
2022/12/28 01:09:28;;;;;;;9.87;6.27;;;7.60;99.90;;;;;;5071207;28;20701;-63
2022/12/28 01:11:56;;;;;;;8.50;5.97;;;7.70;99.90;;;;;;5070445;28;20234;-63
2022/12/28 01:14:25;;;;;;;9.50;6.17;;;7.70;99.90;;;;;;5070965;28;20196;-62
2022/12/28 01:16:55;;;;;;;9.67;6.63;;;7.70;99.90;;;;;;5069982;28;20188;-63
2022/12/28 01:19:24;;;;;;;8.43;6.50;;;7.70;99.90;;;;;;5069958;28;20216;-63
2022/12/28 01:21:52;;;;;;;8.37;6.10;;;7.80;99.90;;;;;;5069475;28;20193;-63
2022/12/28 01:24:21;;;;;;;10.03;6.27;;;7.80;99.90;;;;;;5068140;28;21027;-63
2022/12/28 01:26:50;;;;;;;10.40;6.57;;;7.80;99.90;;;;;;5069568;28;20263;-64
2022/12/28 01:29:18;;;;;;;8.80;7.10;;;7.80;99.90;;;;;;5103286;27;20184;-63
2022/12/28 01:31:46;;;;;;;9.77;7.10;;;7.80;99.90;;;;;;5081058;28;20714;-63
2022/12/28 01:34:16;;;;;;;11.93;6.90;;;7.80;99.90;;;;;;5103196;28;20234;-63
2022/12/28 01:36:45;;;;;;;11.03;7.17;;;7.70;99.90;;;;;;5070036;28;20267;-63
2022/12/28 01:39:13;;;;;;;10.97;7.80;;;7.70;99.90;;;;;;5065790;28;20206;-63
2022/12/28 01:41:43;;;;;;;9.30;7.30;;;7.70;99.90;;;;;;5068269;28;20211;-63
2022/12/28 01:44:41;;;;;;;10.37;7.27;;;7.70;99.90;;;;;;5074086;28;20196;-63
2022/12/28 01:47:15;;;;;;;11.00;7.60;;;7.70;99.90;;;;;;5067504;28;20212;-64
2022/12/28 01:49:53;;;;;;;13.80;7.63;;;7.70;99.90;;;;;;5068579;28;20191;-63
2022/12/28 01:52:27;;;;;;;7.90;7.10;;;7.70;99.90;;;;;;5068017;28;20830;-64
2022/12/28 01:55:02;;;;;;;8.93;6.70;;;7.70;99.90;;;;;;5066745;28;20198;-63
2022/12/28 01:57:34;;;;;;;10.67;6.53;;;7.80;99.90;;;;;;5069647;28;20538;-64
2022/12/28 02:00:07;;;;;;;9.97;7.10;;;7.90;99.90;;;;;;5070129;28;20192;-64
2022/12/28 02:02:36;;;;;;;7.43;6.20;;;7.90;99.90;;;;;;5068108;28;20211;-64
2022/12/28 02:05:07;;;;;;;10.83;6.30;;;7.90;99.90;;;;;;5066347;28;20204;-63
2022/12/28 02:07:41;;;;;;;8.60;6.53;;;8.00;99.90;;;;;;5070341;28;20219;-63
2022/12/28 02:10:11;;;;;;;8.83;6.40;;;8.10;99.90;;;;;;5069514;28;20615;-63
2022/12/28 02:13:00;;;;;;;8.23;5.83;;;8.10;99.90;;;;;;5065659;28;20228;-63
2022/12/28 02:15:29;;;;;;;11.97;6.47;;;8.20;99.90;;;;;;5068074;28;20200;-63
2022/12/28 02:17:58;;;;;;;7.47;6.07;;;8.20;99.90;;;;;;5067826;28;20189;-64
2022/12/28 02:20:39;;;;;;;13.83;5.73;;;8.30;99.90;;;;;;5067761;28;21159;-63
2022/12/28 02:23:38;;;;;;;6.90;5.53;;;8.40;99.90;;;;;;5069698;28;20267;-64
2022/12/28 02:26:42;;;;;;;12.03;5.70;;;8.40;99.90;;;;;;5068562;28;20367;-64
2022/12/28 02:29:36;;;;;;;8.37;5.33;;;8.40;99.90;;;;;;5066038;28;20287;-64
2022/12/28 02:32:16;;;;;;;7.43;5.70;;;8.40;99.90;;;;;;5064619;28;20225;-64
2022/12/28 02:34:50;;;;;;;8.40;5.60;;;8.40;99.90;;;;;;5099559;28;20271;-63
2022/12/28 02:37:22;;;;;;;6.03;5.43;;;8.40;99.90;;;;;;5065125;28;20501;-64
2022/12/28 02:39:56;;;;;;;6.57;5.30;;;8.50;99.90;;;;;;5066188;28;20200;-64
2022/12/28 02:42:26;;;;;;;8.90;5.60;;;8.50;99.90;;;;;;5064635;28;20192;-63
2022/12/28 02:50:44;;;;;;;5.53;4.90;;;8.60;99.90;;;;;;5066441;28;20279;-63
2022/12/28 02:53:34;;;;;;;7.03;5.40;;;8.60;99.90;;;;;;5063891;28;20188;-63
2022/12/28 02:56:14;;;;;;;5.70;5.20;;;8.60;99.90;;;;;;5066180;28;20203;-64
2022/12/28 02:59:14;;;;;;;7.73;5.03;;;8.60;99.90;;;;;;5066818;28;20191;-64
2022/12/28 03:02:24;;;;;;;6.83;5.33;;;8.60;99.90;;;;;;5067442;28;20204;-64
2022/12/28 03:05:10;;;;;;;5.37;4.33;;;8.60;99.90;;;;;;5058149;28;20200;-64
2022/12/28 03:10:44;;;;;;;5.70;4.60;;;8.60;99.90;;;;;;5064954;28;20258;-64
2022/12/28 03:16:08;;;;;;;9.53;4.57;;;8.70;99.90;;;;;;5068043;28;20202;-63
2022/12/28 03:32:46;;;;;;;5.83;4.10;;;8.90;99.90;;;;;;5070861;28;20211;-64
2022/12/28 03:35:18;;;;;;;4.97;3.87;;;8.80;99.90;;;;;;5068239;28;20279;-63
2022/12/28 03:37:52;;;;;;;4.00;3.70;;;8.80;99.90;;;;;;5067788;28;20271;-63
2022/12/28 03:40:31;;;;;;;8.17;4.57;;;8.90;99.90;;;;;;5068722;28;20202;-64
2022/12/28 03:45:56;;;;;;;5.60;4.30;;;8.80;99.90;;;;;;5067208;28;20199;-64
2022/12/28 03:48:25;;;;;;;6.00;3.93;;;8.80;99.90;;;;;;5068034;28;20215;-64
2022/12/28 03:50:55;;;;;;;3.90;3.60;;;8.80;99.90;;;;;;5067192;28;20215;-63
2022/12/28 03:53:30;;;;;;;5.93;3.90;;;8.80;99.90;;;;;;5064544;28;20228;-64
2022/12/28 03:56:10;;;;;;;4.40;4.07;;;8.80;99.90;;;;;;5064490;28;20194;-63
2022/12/28 03:58:39;;;;;;;10.03;3.80;;;8.90;99.90;;;;;;5069701;28;20192;-64
2022/12/28 04:01:08;;;;;;;4.17;3.40;;;8.90;99.90;;;;;;5068595;28;20512;-63
2022/12/28 04:03:36;;;;;;;4.43;3.37;;;8.90;99.90;;;;;;5069031;28;20203;-64
2022/12/28 04:06:07;;;;;;;9.47;3.60;;;8.90;99.90;;;;;;5068111;28;20200;-63
2022/12/28 04:08:35;;;;;;;6.83;3.70;;;9.00;99.90;;;;;;5067927;28;20212;-64
2022/12/28 04:11:04;;;;;;;6.70;3.50;;;9.00;99.90;;;;;;5068293;28;20683;-63
2022/12/28 04:13:32;;;;;;;8.83;3.70;;;9.10;99.90;;;;;;5071509;28;20223;-64
2022/12/28 04:16:03;;;;;;;3.77;3.40;;;9.10;99.90;;;;;;5068692;28;20198;-63
2022/12/28 04:18:32;;;;;;;4.67;2.90;;;9.10;99.90;;;;;;5067405;28;20194;-64
2022/12/28 04:21:01;;;;;;;7.37;3.50;;;9.10;99.90;;;;;;5068880;28;20188;-63
2022/12/28 04:23:32;;;;;;;3.73;3.23;;;9.20;99.90;;;;;;5066306;28;20200;-64
2022/12/28 04:26:03;;;;;;;3.30;3.00;;;9.20;99.90;;;;;;5067684;28;20223;-64
2022/12/28 04:28:33;;;;;;;4.03;3.00;;;9.20;99.90;;;;;;5066044;28;20299;-64
2022/12/28 04:31:02;;;;;;;4.63;3.30;;;9.10;99.90;;;;;;5067726;28;20220;-63
2022/12/28 04:33:33;;;;;;;5.67;3.40;;;9.10;99.90;;;;;;5068387;28;20562;-63
2022/12/28 04:36:05;;;;;;;4.03;3.20;;;9.10;99.90;;;;;;5069245;28;20199;-63
2022/12/28 04:38:35;;;;;;;6.13;2.90;;;9.10;99.90;;;;;;5068565;28;20200;-64
2022/12/28 04:41:05;;;;;;;7.03;3.50;;;9.10;99.90;;;;;;5068099;28;20531;-64
2022/12/28 04:43:34;;;;;;;4.30;2.97;;;9.20;99.90;;;;;;5067939;28;20196;-63
2022/12/28 04:46:04;;;;;;;2.87;2.67;;;9.20;99.90;;;;;;5068362;28;20271;-63
2022/12/28 04:48:33;;;;;;;4.27;2.97;;;9.20;99.90;;;;;;5052126;28;20207;-63
2022/12/28 04:51:06;;;;;;;3.10;2.80;;;9.20;99.90;;;;;;5070707;28;20184;-63
2022/12/28 04:53:38;;;;;;;5.37;3.53;;;9.20;99.90;;;;;;5070470;28;20200;-64
2022/12/28 04:56:08;;;;;;;4.63;2.93;;;9.20;99.90;;;;;;5069841;28;20215;-64
2022/12/28 04:58:37;;;;;;;6.10;2.77;;;9.30;99.90;;;;;;5068842;28;20181;-64
2022/12/28 05:01:06;;;;;;;6.73;3.00;;;9.30;99.90;;;;;;5069693;28;20196;-64
2022/12/28 05:03:36;;;;;;;4.73;2.83;;;9.30;99.90;;;;;;5071996;28;20670;-64
2022/12/28 05:06:07;;;;;;;4.13;2.80;;;9.30;99.90;;;;;;5105378;28;20190;-64
2022/12/28 05:08:36;;;;;;;3.30;2.70;;;9.30;99.90;;;;;;5071963;28;20258;-64
2022/12/28 05:11:08;;;;;;;4.10;2.77;;;9.30;99.90;;;;;;5068471;28;20236;-63
2022/12/28 05:13:39;;;;;;;4.50;2.80;;;9.40;99.90;;;;;;5071319;28;20206;-63
2022/12/28 05:16:09;;;;;;;4.03;2.93;;;9.40;99.90;;;;;;5071177;28;20234;-63
2022/12/28 05:18:37;;;;;;;2.30;2.20;;;9.40;99.90;;;;;;5070633;28;20253;-63
2022/12/28 05:21:08;;;;;;;5.03;2.57;;;9.40;99.90;;;;;;5073542;28;20279;-63
2022/12/28 05:23:37;;;;;;;4.73;2.73;;;9.40;99.90;;;;;;5070649;28;20194;-63
2022/12/28 05:26:11;;;;;;;4.40;2.80;;;9.40;99.90;;;;;;5069227;28;21076;-64
2022/12/28 05:28:40;;;;;;;6.00;2.57;;;9.40;99.90;;;;;;5064738;28;20235;-63
2022/12/28 05:31:11;;;;;;;5.23;2.83;;;9.40;99.90;;;;;;5069587;28;20223;-64
2022/12/28 05:33:40;;;;;;;6.70;3.20;;;9.40;99.90;;;;;;5069490;28;20192;-63
2022/12/28 05:36:11;;;;;;;5.47;2.87;;;9.40;99.90;;;;;;5070362;28;20279;-64
2022/12/28 05:38:40;;;;;;;2.83;2.60;;;9.40;99.90;;;;;;5069056;28;20196;-64
2022/12/28 05:41:13;;;;;;;3.70;2.70;;;9.50;99.90;;;;;;5081519;28;20690;-64
2022/12/28 05:43:42;;;;;;;6.07;2.60;;;9.50;99.90;;;;;;5067105;28;20219;-64
2022/12/28 05:46:13;;;;;;;5.30;2.50;;;9.40;99.90;;;;;;5068644;28;20184;-64
2022/12/28 05:48:42;;;;;;;8.37;2.80;;;9.40;99.90;;;;;;5065815;28;20218;-64
2022/12/28 05:51:13;;;;;;;6.77;3.10;;;9.50;99.90;;;;;;5067619;28;20847;-64
2022/12/28 05:53:42;;;;;;;2.70;2.40;;;9.40;99.90;;;;;;5067782;28;20200;-64
2022/12/28 05:56:13;;;;;;;4.30;2.73;;;9.40;99.90;;;;;;5080834;28;20540;-64
2022/12/28 05:58:43;;;;;;;6.33;3.07;;;9.40;99.90;;;;;;5065700;28;20728;-63
2022/12/28 06:01:14;;;;;;;2.53;2.40;;;9.50;99.90;;;;;;5096246;28;20196;-64
2022/12/28 06:03:43;;;;;;;3.77;2.50;;;9.50;99.90;;;;;;5064355;28;20195;-64
2022/12/28 06:06:14;;;;;;;4.07;2.60;;;9.50;99.90;;;;;;5066920;28;20206;-64
2022/12/28 06:08:43;;;;;;;5.57;2.93;;;9.50;99.90;;;;;;5065537;28;20207;-64
2022/12/28 06:11:15;;;;;;;2.80;2.57;;;9.50;99.90;;;;;;5065608;28;20224;-64
2022/12/28 06:13:44;;;;;;;5.30;2.67;;;9.40;99.90;;;;;;5064127;28;20678;-64
2022/12/28 06:16:14;;;;;;;6.57;2.73;;;9.40;99.90;;;;;;5064438;28;20625;-64
2022/12/28 06:18:44;;;;;;;3.70;2.57;;;9.40;99.90;;;;;;5061211;28;20197;-63
2022/12/28 06:21:15;;;;;;;7.20;2.93;;;9.40;99.90;;;;;;5070425;28;20237;-64
2022/12/28 06:23:45;;;;;;;6.83;2.73;;;9.40;99.90;;;;;;5098526;28;20212;-64
2022/12/28 06:26:17;;;;;;;3.67;2.23;;;9.50;99.90;;;;;;5063106;28;20188;-63
2022/12/28 06:28:46;;;;;;;5.20;2.87;;;9.50;99.90;;;;;;5065893;28;20319;-64
2022/12/28 06:31:16;;;;;;;4.50;2.90;;;9.50;99.90;;;;;;5068550;28;20192;-63
2022/12/28 06:33:46;;;;;;;4.73;2.30;;;9.50;99.90;;;;;;5067297;28;20279;-63
2022/12/28 06:36:16;;;;;;;7.77;2.80;;;9.50;99.90;;;;;;5065242;28;20196;-64
2022/12/28 06:38:48;;;;;;;5.50;3.30;;;9.50;99.90;;;;;;5065342;28;20200;-63
2022/12/28 06:41:20;;;;;;;9.80;2.67;;;9.50;99.90;;;;;;5063725;28;20192;-64
2022/12/28 06:43:50;;;;;;;6.40;3.07;;;9.50;99.90;;;;;;5062995;28;20216;-63
2022/12/28 06:46:22;;;;;;;6.90;2.67;;;9.60;99.90;;;;;;5068050;28;20868;-63
2022/12/28 06:48:51;;;;;;;5.10;2.57;;;9.50;99.90;;;;;;5066222;28;20216;-63
2022/12/28 06:51:21;;;;;;;4.57;2.40;;;9.50;99.90;;;;;;5064325;28;20184;-63
2022/12/28 06:53:51;;;;;;;7.77;2.90;;;9.50;99.90;;;;;;5067957;28;20203;-63
2022/12/28 06:56:27;;;;;;;11.27;2.87;;;9.50;99.90;;;;;;5064701;28;20197;-63
2022/12/28 06:58:55;;;;;;;4.73;2.60;;;9.50;99.90;;;;;;5064758;28;20646;-63
2022/12/28 07:01:32;;;;;;;9.27;2.70;;;9.50;99.90;;;;;;5069636;28;20193;-63
2022/12/28 07:04:02;;;;;;;6.97;3.00;;;9.50;99.90;;;;;;5082450;28;20214;-64
2022/12/28 07:06:33;;;;;;;8.67;2.93;;;9.50;99.90;;;;;;5067471;28;20208;-63
2022/12/28 07:09:03;;;;;;;8.13;2.97;;;9.50;99.90;;;;;;5065588;28;20507;-63
2022/12/28 07:11:34;;;;;;;4.37;2.77;;;9.50;99.90;;;;;;5067101;28;20231;-63
2022/12/28 07:14:02;;;;;;;6.63;2.73;;;9.50;99.90;;;;;;5068419;28;20212;-63
2022/12/28 07:16:31;;;;;;;9.40;3.10;;;9.50;99.90;;;;;;5067754;28;20650;-63
2022/12/28 07:18:59;;;;;;;6.87;2.60;;;9.50;99.90;;;;;;5068789;28;20188;-63
2022/12/28 07:21:30;;;;;;;6.23;3.03;;;9.50;99.90;;;;;;5066530;28;20203;-63
2022/12/28 07:23:58;;;;;;;5.03;2.70;;;9.50;99.90;;;;;;5067777;28;20307;-63
2022/12/28 07:26:29;;;;;;;6.80;2.73;;;9.50;99.90;;;;;;5064487;28;20195;-63
2022/12/28 07:29:02;;;;;;;5.03;3.10;;;9.50;99.90;;;;;;5064971;28;20223;-63
2022/12/28 07:31:31;;;;;;;10.27;2.70;;;9.40;99.90;;;;;;5059076;28;20899;-63
2022/12/28 07:34:07;;;;;;;7.97;2.80;;;9.40;99.90;;;;;;5064280;28;20269;-63
2022/12/28 07:36:35;;;;;;;6.23;3.00;;;9.50;99.90;;;;;;5058047;28;20192;-64
2022/12/28 07:39:03;;;;;;;5.67;2.80;;;9.50;99.90;;;;;;5064701;28;20206;-64
2022/12/28 07:41:34;;;;;;;8.40;3.20;;;9.50;99.90;;;;;;5062465;28;20733;-64
2022/12/28 07:44:04;;;;;;;7.50;2.70;;;9.50;99.90;;;;;;5055833;28;20276;-63
2022/12/28 07:46:35;;;;;;;8.67;2.70;;;9.50;99.90;;;;;;5062007;28;20254;-64
2022/12/28 07:49:04;;;;;;;6.17;2.60;;;9.60;99.90;;;;;;5061705;28;20211;-63
2022/12/28 07:51:35;;;;;;;6.00;2.80;;;9.50;99.90;;;;;;5061573;28;20639;-63
2022/12/28 07:54:04;;;;;;;5.67;2.53;;;9.50;99.90;;;;;;5068333;28;20204;-63
2022/12/28 07:56:34;;;;;;;5.97;2.80;;;9.50;99.90;;;;;;5056014;28;20226;-63
2022/12/28 07:59:04;;;;;;;6.60;2.87;;;9.50;99.90;;;;;;5062975;28;20625;-63
2022/12/28 08:01:35;;;;;;;4.00;2.53;;;9.60;99.90;;;;;;5060310;28;20215;-64
2022/12/28 08:04:06;;;;;;;6.53;2.67;;;9.60;99.90;;;;;;5063794;28;20687;-63
2022/12/28 08:06:36;;;;;;;10.50;2.93;;;9.60;99.90;;;;;;5072295;28;20188;-63
2022/12/28 08:09:06;;;;;;;4.93;2.87;;;9.60;99.90;;;;;;5067265;28;20200;-63
2022/12/28 08:11:36;;;;;;;5.83;2.73;;;9.60;99.90;;;;;;5066487;28;20310;-63
2022/12/28 08:14:07;;;;;;;8.17;3.37;;;9.60;99.90;;;;;;5061980;28;20197;-64
2022/12/28 08:16:37;;;;;;;8.83;2.93;;;9.60;99.90;;;;;;5066070;28;20196;-63
2022/12/28 08:19:06;;;;;;;6.20;3.10;;;9.50;99.90;;;;;;5065790;28;20201;-63
2022/12/28 08:21:37;;;;;;;5.97;3.07;;;9.50;99.90;;;;;;5063724;28;20298;-64
2022/12/28 08:24:08;;;;;;;7.30;3.10;;;9.40;99.90;;;;;;5070733;28;20219;-63
2022/12/28 08:26:38;;;;;;;6.63;3.50;;;9.30;99.90;;;;;;5071771;28;20195;-64
2022/12/28 08:29:09;;;;;;;5.17;3.63;;;9.30;99.90;;;;;;5081676;28;20557;-63
2022/12/28 08:31:40;;;;;;;4.87;3.10;;;9.20;99.90;;;;;;5073098;28;20651;-63
2022/12/28 08:34:11;;;;;;;10.27;3.00;;;9.20;99.90;;;;;;5072270;28;20198;-63
2022/12/28 08:36:40;;;;;;;6.20;3.17;;;9.20;99.90;;;;;;5074468;28;20199;-63
2022/12/28 08:39:09;;;;;;;6.67;3.27;;;9.20;99.90;;;;;;5073877;28;20199;-63
2022/12/28 08:41:37;;;;;;;9.67;3.43;;;9.10;99.90;;;;;;5071920;28;20623;-63
2022/12/28 08:44:07;;;;;;;10.83;3.77;;;9.10;99.90;;;;;;5104728;28;20223;-64
2022/12/28 08:46:36;;;;;;;7.37;3.60;;;9.10;99.90;;;;;;5073136;28;20192;-64
2022/12/28 08:49:05;;;;;;;7.93;3.43;;;9.10;99.90;;;;;;5074410;28;20614;-64
2022/12/28 08:51:35;;;;;;;5.60;3.63;;;9.10;99.90;;;;;;5061285;28;20208;-66
2022/12/28 08:54:04;;;;;;;7.97;3.67;;;9.10;99.90;;;;;;5072991;28;20223;-64
2022/12/28 08:56:36;;;;;;;7.87;3.73;;;9.10;99.90;;;;;;5074362;28;20257;-64
2022/12/28 08:59:05;;;;;;;7.70;3.57;;;9.00;99.90;;;;;;5059070;28;20199;-63
2022/12/28 09:01:36;;;;;;;4.70;3.10;;;9.10;99.90;;;;;;5071871;28;20196;-64
2022/12/28 09:04:14;;;;;;;6.77;3.37;;;9.10;99.90;;;;;;5071832;28;20253;-63
2022/12/28 09:06:42;;;;;;;9.93;4.07;;;9.10;99.90;;;;;;5072242;28;20223;-63
2022/12/28 09:09:13;;;;;;;12.90;3.93;;;9.10;99.90;;;;;;5074403;28;20187;-64
2022/12/28 09:11:41;;;;;;;5.87;3.60;;;9.10;99.90;;;;;;5074990;28;20310;-64
2022/12/28 09:14:12;;;;;;;8.00;4.10;;;9.10;99.90;;;;;;5072728;28;20188;-64
2022/12/28 09:16:52;;;;;;;7.90;3.53;;;9.10;99.90;;;;;;5067788;28;20210;-64
2022/12/28 09:19:21;;;;;;;11.13;3.27;;;9.10;99.90;;;;;;5070646;28;20665;-64
2022/12/28 09:21:51;;;;;;;6.07;3.90;;;9.10;99.90;;;;;;5071741;28;20680;-64
2022/12/28 09:24:20;;;;;;;7.30;3.93;;;9.10;99.90;;;;;;5067792;28;20257;-64
2022/12/28 09:26:51;;;;;;;6.63;3.60;;;9.10;99.90;;;;;;5075885;28;20658;-64
2022/12/28 09:29:20;;;;;;;5.27;3.60;;;9.20;99.90;;;;;;5072178;28;20188;-64
2022/12/28 09:31:48;;;;;;;11.70;3.87;;;9.20;99.90;;;;;;5072659;28;20295;-65
2022/12/28 09:34:17;;;;;;;9.17;3.43;;;9.10;99.90;;;;;;5066836;28;20203;-64
2022/12/28 09:37:05;;;;;;;3.83;3.20;;;9.20;99.90;;;;;;5065245;28;20249;-64
2022/12/28 09:39:34;;;;;;;6.43;4.10;;;9.20;99.90;;;;;;5073082;28;20196;-65
2022/12/28 09:42:06;;;;;;;9.07;3.80;;;9.20;99.90;;;;;;5076725;28;20196;-64
2022/12/28 09:44:44;;;;;;;6.43;4.10;;;9.20;99.90;;;;;;5073993;28;20203;-64
2022/12/28 09:47:23;;;;;;;4.50;3.80;;;9.20;99.90;;;;;;5072540;28;20762;-64
2022/12/28 09:50:28;;;;;;;6.87;4.00;;;9.20;99.90;;;;;;5073208;28;20188;-65
2022/12/28 09:53:28;;;;;;;7.03;4.00;;;9.20;99.90;;;;;;5062848;28;20200;-65
2022/12/28 09:56:04;;;;;;;3.90;3.60;;;9.20;99.90;;;;;;5062818;28;20856;-65
2022/12/28 09:58:36;;;;;;;5.57;3.40;;;9.20;99.90;;;;;;5065051;28;20647;-65
2022/12/28 10:01:09;;;;;;;10.73;3.83;;;9.20;99.90;;;;;;5072944;28;20196;-65
2022/12/28 10:03:40;;;;;;;4.00;3.70;;;9.20;99.90;;;;;;5062210;28;20775;-65
2022/12/28 10:06:12;;;;;;;6.13;3.93;;;9.20;99.90;;;;;;5071823;28;20267;-65
2022/12/28 10:08:46;;;;;;;5.43;3.90;;;9.30;99.90;;;;;;5071067;28;20198;-65
2022/12/28 10:11:18;;;;;;;6.47;3.90;;;9.30;99.90;;;;;;5067865;28;20225;-65
2022/12/28 10:13:53;;;;;;;10.47;4.13;;;9.30;99.90;;;;;;5073325;28;20196;-65
2022/12/28 10:16:25;;;;;;;5.97;4.13;;;9.30;99.90;;;;;;5070788;28;20534;-65
2022/12/28 10:18:54;;;;;;;9.00;4.27;;;9.30;99.90;;;;;;5070966;28;20203;-64
2022/12/28 10:21:24;;;;;;;6.83;3.83;;;9.30;99.90;;;;;;5051535;28;20192;-65
2022/12/28 10:24:06;;;;;;;6.63;3.90;;;9.30;99.90;;;;;;5072002;28;20215;-64
2022/12/28 10:26:55;;;;;;;8.93;3.90;;;9.30;99.90;;;;;;5066383;28;20266;-65
2022/12/28 10:29:25;;;;;;;6.83;3.93;;;9.30;99.90;;;;;;5070569;28;20202;-65
2022/12/28 10:31:59;;;;;;;9.80;3.93;;;9.30;99.90;;;;;;5070550;28;20721;-64
2022/12/28 10:34:30;;;;;;;13.03;4.23;;;9.30;99.90;;;;;;5069568;28;20549;-64
2022/12/28 10:37:07;;;;;;;8.00;4.07;;;9.30;99.90;;;;;;5065234;28;20219;-65
2022/12/28 10:39:51;;;;;;;8.00;4.30;;;9.30;99.90;;;;;;5067252;28;20655;-64
2022/12/28 10:42:23;;;;;;;7.20;4.30;;;9.30;99.90;;;;;;5078160;28;20183;-65
2022/12/28 10:44:53;;;;;;;7.63;4.07;;;9.30;99.90;;;;;;5064203;28;20276;-65
2022/12/28 10:47:30;;;;;;;9.23;4.20;;;9.30;99.90;;;;;;5061100;28;20538;-64
2022/12/28 10:49:58;;;;;;;9.00;4.33;;;9.30;99.90;;;;;;5062423;28;20202;-64
2022/12/28 10:52:57;;;;;;;6.97;3.93;;;9.40;99.90;;;;;;5060670;28;20203;-64
2022/12/28 10:55:34;;;;;;;12.63;4.13;;;9.40;99.90;;;;;;5064856;28;20635;-64
2022/12/28 10:58:17;;;;;;;10.30;4.00;;;9.50;99.90;;;;;;5053385;28;20200;-64
2022/12/28 11:00:59;;;;;;;13.60;4.00;;;9.50;99.90;;;;;;5064674;28;20339;-64
2022/12/28 11:03:30;;;;;;;13.87;4.23;;;9.60;99.90;;;;;;5066358;28;20666;-64
2022/12/28 11:06:16;;;;;;;9.17;4.07;;;9.60;99.90;;;;;;5066019;28;20192;-64
2022/12/28 11:09:14;;;;;;;11.80;4.07;;;9.60;99.90;;;;;;5059469;28;20271;-64
2022/12/28 11:11:45;;;;;;;14.13;3.77;;;9.70;99.90;;;;;;5064936;28;20219;-64
2022/12/28 11:14:24;;;;;;;11.27;4.30;;;9.70;99.90;;;;;;5062903;28;20212;-64
2022/12/28 11:16:53;;;;;;;9.13;3.80;;;9.70;99.90;;;;;;5064904;28;20199;-64
2022/12/28 11:19:23;;;;;;;5.63;3.63;;;9.80;99.90;;;;;;5073806;28;20196;-64
2022/12/28 11:21:52;;;;;;;10.40;3.60;;;9.80;99.90;;;;;;5067990;28;20224;-64
2022/12/28 11:24:26;;;;;;;7.00;3.70;;;9.90;99.90;;;;;;5060067;28;20208;-63
2022/12/28 11:26:57;;;;;;;7.33;3.33;;;9.90;99.90;;;;;;5060973;28;20278;-64
2022/12/28 11:29:27;;;;;;;6.67;3.50;;;9.90;99.90;;;;;;5070957;28;20211;-63
2022/12/28 11:32:01;;;;;;;14.33;3.97;;;9.90;99.90;;;;;;5066191;28;20250;-64
2022/12/28 11:34:32;;;;;;;7.03;3.87;;;9.90;99.90;;;;;;5065344;28;20680;-64
2022/12/28 11:37:01;;;;;;;9.13;3.47;;;9.90;99.90;;;;;;5064697;28;20214;-63
2022/12/28 11:39:50;;;;;;;5.67;3.40;;;10.00;99.90;;;;;;5064632;28;20705;-63
2022/12/28 11:42:51;;;;;;;8.93;3.23;;;9.90;99.90;;;;;;5067931;28;20555;-64
2022/12/28 11:45:51;;;;;;;7.57;3.70;;;10.00;99.90;;;;;;5060282;28;20200;-64
2022/12/28 11:48:46;;;;;;;9.50;3.70;;;9.90;99.90;;;;;;5067639;28;20195;-64
2022/12/28 11:51:17;;;;;;;8.77;3.33;;;10.00;99.90;;;;;;5101376;28;20208;-63
2022/12/28 11:53:57;;;;;;;8.80;3.43;;;10.00;99.90;;;;;;5068375;28;20226;-64
2022/12/28 11:56:28;;;;;;;6.27;3.43;;;10.00;99.90;;;;;;5068376;28;20194;-64
2022/12/28 11:59:23;;;;;;;6.53;3.53;;;10.00;99.90;;;;;;5062102;28;20212;-63
2022/12/28 12:01:57;;;;;;;6.97;3.50;;;10.00;99.90;;;;;;5067409;28;20192;-62
2022/12/28 12:04:35;;;;;;;5.07;3.37;;;10.10;99.90;;;;;;5062158;28;20195;-63
2022/12/28 12:07:26;;;;;;;9.13;3.33;;;10.00;99.90;;;;;;5096696;28;20188;-62
2022/12/28 12:10:37;;;;;;;5.93;3.40;;;10.10;99.90;;;;;;5063514;28;20200;-63
2022/12/28 12:13:43;;;;;;;6.63;3.10;;;10.10;99.90;;;;;;5093324;28;20207;-63
2022/12/28 12:16:41;;;;;;;9.30;3.77;;;10.10;99.90;;;;;;5063460;28;20196;-63
2022/12/28 12:19:22;;;;;;;9.40;3.43;;;10.20;99.90;;;;;;5058381;28;20207;-63
2022/12/28 12:22:00;;;;;;;6.97;3.57;;;10.20;99.90;;;;;;5055956;28;20796;-63
2022/12/28 12:24:36;;;;;;;7.63;3.70;;;10.20;99.90;;;;;;5062948;28;20656;-63
2022/12/28 12:27:13;;;;;;;6.57;3.23;;;10.20;99.90;;;;;;5064108;28;20201;-63
2022/12/28 12:29:45;;;;;;;8.17;3.03;;;10.20;99.90;;;;;;5062055;28;20189;-63
2022/12/28 12:32:20;;;;;;;9.93;3.17;;;10.20;99.90;;;;;;5064339;28;20222;-63
2022/12/28 12:34:52;;;;;;;4.17;2.73;;;10.30;99.90;;;;;;5064194;28;20203;-63
2022/12/28 12:37:43;;;;;;;9.93;3.37;;;10.30;99.90;;;;;;5070292;28;20192;-63
2022/12/28 12:40:47;;;;;;;5.47;3.20;;;10.30;99.90;;;;;;5060870;28;20201;-63
2022/12/28 12:43:30;;;;;;;7.57;3.17;;;10.30;99.90;;;;;;5058492;28;20200;-63
2022/12/28 12:46:27;;;;;;;4.87;2.97;;;10.30;99.90;;;;;;5058516;28;20203;-63
2022/12/28 12:49:17;;;;;;;6.50;2.93;;;10.40;99.90;;;;;;5049301;28;20651;-63
2022/12/28 12:51:58;;;;;;;8.10;3.17;;;10.50;99.90;;;;;;5056767;28;20691;-63
2022/12/28 12:54:37;;;;;;;6.50;2.67;;;10.50;99.90;;;;;;5062076;28;20196;-63
2022/12/28 12:57:12;;;;;;;6.33;3.43;;;10.50;99.90;;;;;;5058266;28;20785;-63
2022/12/28 13:00:05;;;;;;;5.13;3.10;;;10.50;99.90;;;;;;5076212;28;20204;-63
2022/12/28 13:03:16;;;;;;;7.57;3.00;;;10.50;99.90;;;;;;5060534;28;20205;-63
2022/12/28 13:05:51;;;;;;;4.90;2.90;;;10.60;99.90;;;;;;5062850;28;20218;-64
2022/12/28 13:08:26;;;;;;;9.97;3.13;;;10.60;99.90;;;;;;5060895;28;20188;-63
2022/12/28 13:10:55;;;;;;;7.27;2.90;;;10.60;99.90;;;;;;5059760;28;20204;-63
2022/12/28 13:13:30;;;;;;;7.00;2.70;;;10.60;99.90;;;;;;5063222;28;20227;-63
2022/12/28 13:16:02;;;;;;;6.50;3.33;;;10.60;99.90;;;;;;5061003;28;20258;-63
2022/12/28 13:18:31;;;;;;;7.80;2.33;;;10.60;99.90;;;;;;5070668;28;20246;-63
2022/12/28 13:21:20;;;;;;;6.00;2.53;;;10.60;99.90;;;;;;5067385;28;20250;-63
2022/12/28 13:23:51;;;;;;;4.90;2.40;;;10.70;99.90;;;;;;5063071;28;20223;-64
2022/12/28 13:26:25;;;;;;;7.47;3.50;;;10.70;99.90;;;;;;5073537;28;20275;-63
2022/12/28 13:28:58;;;;;;;8.27;2.90;;;10.80;99.90;;;;;;5073727;28;20188;-63
2022/12/28 13:31:33;;;;;;;4.27;2.20;;;10.70;99.90;;;;;;5070321;28;20775;-64
2022/12/28 13:34:04;;;;;;;4.33;2.60;;;10.70;99.90;;;;;;5062699;28;20658;-63
2022/12/28 13:36:33;;;;;;;5.13;2.73;;;10.70;99.90;;;;;;5067541;28;20589;-64
2022/12/28 13:39:11;;;;;;;4.93;2.67;;;10.60;99.90;;;;;;5059675;28;20231;-63
2022/12/28 13:41:50;;;;;;;5.07;2.83;;;10.60;99.90;;;;;;5099235;28;20208;-63
2022/12/28 13:44:29;;;;;;;4.83;2.70;;;10.60;99.90;;;;;;5069808;28;20223;-63
2022/12/28 13:47:02;;;;;;;9.20;2.90;;;10.50;99.90;;;;;;5073248;28;20278;-63
2022/12/28 13:49:38;;;;;;;8.33;2.83;;;10.50;99.90;;;;;;5062318;28;20211;-63
2022/12/28 13:52:10;;;;;;;6.50;2.60;;;10.60;99.90;;;;;;5075096;28;20218;-63
2022/12/28 13:54:44;;;;;;;5.13;2.60;;;10.60;99.90;;;;;;5071361;28;20200;-63
2022/12/28 13:57:15;;;;;;;5.83;2.63;;;10.70;99.90;;;;;;5062177;28;20200;-64